SANU/UAQ METAR and TAF weather

Enter ICAO airport designator
Station Type Date Time Source
SANU METAR 2018/10/08 11:40 UTC NOAA

SANU 081140Z 29022G38KT 6000 NSC 26/M09 Q1007


Station Type Date Time Source
SANU Decoded METAR 2018/10/08 11:40 UTC NOAA

San Juan Aerodrome, Argentina (SANU) 31-34S 068-52W 598M
Oct 08, 2018 - 07:40 AM EDT / 2018.10.08 1140 UTC
Wind: from the WNW (290 degrees) at 25 MPH (22 KT) gusting to 44 MPH (38 KT):0
Visibility: 3 mile(s):0
Temperature: 78 F (26 C)
Dew Point: 15 F (-9 C)
Relative Humidity: 9%
Pressure (altimeter): 29.74 in. Hg (1007 hPa)
ob: SANU 081140Z 29022G38KT 6000 NSC 26/M09 Q1007
cycle: 11

Station Type Date Time Source
SANU TAF 2018/10/15 06:54 UTC NOAA

TAF TAF SANU 1506/1606 05010KT CAVOK TN10/1510Z TX31/1520Z


Example: see airport list